createdAt,value
2022-08-30T00:00:49.428Z,13.60
2022-08-30T00:03:16.823Z,12.90
2022-08-30T00:05:44.248Z,12.60
2022-08-30T00:08:11.027Z,14.20
2022-08-30T00:10:38.332Z,13.70
2022-08-30T00:13:06.605Z,13.00
2022-08-30T00:15:33.523Z,12.70
2022-08-30T00:18:00.435Z,12.50
2022-08-30T00:20:29.500Z,12.90
2022-08-30T00:22:56.268Z,12.70
2022-08-30T00:25:23.179Z,12.50
2022-08-30T00:27:50.248Z,13.80
2022-08-30T00:30:17.264Z,13.40
2022-08-30T00:32:44.076Z,12.90
2022-08-30T00:35:12.041Z,13.30
2022-08-30T00:37:38.963Z,13.50
2022-08-30T00:40:06.751Z,12.90
2022-08-30T00:42:33.830Z,13.30
2022-08-30T00:45:00.613Z,13.80
2022-08-30T00:47:27.358Z,13.70
2022-08-30T00:49:55.150Z,13.40
2022-08-30T00:52:22.246Z,13.00
2022-08-30T00:54:49.181Z,12.70
2022-08-30T00:57:15.948Z,12.50
2022-08-30T00:59:44.648Z,13.20
2022-08-30T01:02:11.626Z,13.20
2022-08-30T01:04:40.749Z,12.40
2022-08-30T01:07:08.339Z,12.70
2022-08-30T01:09:36.088Z,12.50
2022-08-30T01:12:04.724Z,13.60
2022-08-30T01:14:33.224Z,12.10
2022-08-30T01:17:01.576Z,12.40
2022-08-30T01:19:34.666Z,11.80
2022-08-30T01:22:18.826Z,13.00
2022-08-30T01:24:48.512Z,11.80
2022-08-30T01:27:15.942Z,12.30
2022-08-30T01:29:45.075Z,12.50
2022-08-30T01:32:29.791Z,12.70
2022-08-30T01:34:57.161Z,13.10
2022-08-30T01:37:27.209Z,12.20
2022-08-30T01:39:54.020Z,13.10
2022-08-30T01:42:20.892Z,12.60
2022-08-30T01:44:48.733Z,13.30
2022-08-30T01:47:15.838Z,13.10
2022-08-30T01:49:42.702Z,13.20
2022-08-30T01:52:09.429Z,11.90
2022-08-30T01:54:38.197Z,13.10
2022-08-30T01:57:10.076Z,12.40
2022-08-30T01:59:37.168Z,12.70
2022-08-30T02:02:04.421Z,13.80
2022-08-30T02:04:31.323Z,13.10
2022-08-30T02:06:58.091Z,13.70
2022-08-30T02:09:24.839Z,12.80
2022-08-30T02:11:51.959Z,13.10
2022-08-30T02:14:18.726Z,14.00
2022-08-30T02:16:48.508Z,12.80
2022-08-30T02:19:15.510Z,13.20
2022-08-30T02:21:42.259Z,13.30
2022-08-30T02:24:08.955Z,14.40
2022-08-30T02:26:36.675Z,13.90
2022-08-30T02:29:05.369Z,13.00
2022-08-30T02:31:32.423Z,13.20
2022-08-30T02:33:59.213Z,13.20
2022-08-30T02:36:25.950Z,12.90
2022-08-30T02:38:52.742Z,12.90
2022-08-30T02:41:19.744Z,13.10
2022-08-30T02:43:46.673Z,12.20
2022-08-30T02:46:14.094Z,13.50
2022-08-30T02:48:40.913Z,13.20
2022-08-30T02:51:11.167Z,12.70
2022-08-30T02:53:39.302Z,14.10
2022-08-30T02:56:06.107Z,12.60
2022-08-30T02:58:32.860Z,13.50
2022-08-30T03:00:59.679Z,13.20
2022-08-30T03:03:26.620Z,13.90
2022-08-30T03:05:53.395Z,13.80
2022-08-30T03:08:20.147Z,13.50
2022-08-30T03:10:46.897Z,14.50
2022-08-30T03:13:13.631Z,13.90
2022-08-30T03:15:40.584Z,14.40
2022-08-30T03:18:07.913Z,14.40
2022-08-30T03:20:37.520Z,15.00
2022-08-30T03:23:04.835Z,15.10
2022-08-30T03:25:31.670Z,15.10
2022-08-30T03:27:58.517Z,16.10
2022-08-30T03:30:25.505Z,16.20
2022-08-30T03:32:52.440Z,16.00
2022-08-30T03:35:19.374Z,15.30
2022-08-30T03:37:46.263Z,15.70
2022-08-30T03:40:14.540Z,16.90
2022-08-30T03:42:43.339Z,16.20
2022-08-30T03:45:11.066Z,15.90
2022-08-30T03:47:37.824Z,16.10
2022-08-30T03:50:08.008Z,17.30
2022-08-30T03:52:34.724Z,17.60
2022-08-30T03:55:01.558Z,16.80
2022-08-30T03:57:28.758Z,18.10
2022-08-30T03:59:55.499Z,16.80
2022-08-30T04:02:22.455Z,16.90
2022-08-30T04:04:49.299Z,17.10
2022-08-30T04:07:16.074Z,17.90
2022-08-30T04:09:42.793Z,17.30
2022-08-30T04:12:09.584Z,16.90
2022-08-30T04:14:36.287Z,16.40
2022-08-30T04:17:03.116Z,16.50
2022-08-30T04:19:29.850Z,17.60
2022-08-30T04:21:57.393Z,17.40
2022-08-30T04:24:24.332Z,16.20
2022-08-30T04:26:51.154Z,17.20
2022-08-30T04:29:18.007Z,15.10
2022-08-30T04:31:45.383Z,16.30
2022-08-30T04:34:12.953Z,16.60
2022-08-30T04:36:39.755Z,15.70
2022-08-30T04:39:07.402Z,15.30
2022-08-30T04:41:34.247Z,14.40
2022-08-30T04:44:03.125Z,15.00
2022-08-30T04:46:30.388Z,12.80
2022-08-30T04:48:57.139Z,13.90
2022-08-30T04:51:23.855Z,13.20
2022-08-30T04:53:50.603Z,12.80
2022-08-30T04:56:19.622Z,13.40
2022-08-30T04:58:47.438Z,12.80
2022-08-30T05:01:15.264Z,12.30
2022-08-30T05:03:46.246Z,11.90
2022-08-30T05:06:13.193Z,11.80
2022-08-30T05:08:39.937Z,10.30
2022-08-30T05:11:12.871Z,10.10
2022-08-30T05:13:39.675Z,11.20
2022-08-30T05:16:07.160Z,10.80
2022-08-30T05:18:34.864Z,10.40
2022-08-30T05:21:09.712Z,10.50
2022-08-30T05:23:37.047Z,9.80
2022-08-30T05:26:08.660Z,11.90
2022-08-30T05:28:35.903Z,16.10
2022-08-30T05:31:02.916Z,9.70
2022-08-30T05:33:30.082Z,12.10
2022-08-30T05:35:56.844Z,9.40
2022-08-30T05:38:23.593Z,7.80
2022-08-30T05:40:51.252Z,9.10
2022-08-30T05:43:18.540Z,9.80
2022-08-30T05:45:45.270Z,14.30
2022-08-30T05:48:13.050Z,9.80
2022-08-30T05:50:40.136Z,9.30
2022-08-30T05:53:06.993Z,8.40
2022-08-30T05:55:33.798Z,6.90
2022-08-30T05:58:00.837Z,7.40
2022-08-30T06:00:30.303Z,6.90
2022-08-30T06:02:57.328Z,7.70
2022-08-30T06:05:24.335Z,6.90
2022-08-30T06:07:51.180Z,6.30
2022-08-30T06:10:17.961Z,6.90
2022-08-30T06:12:44.780Z,6.80
2022-08-30T06:15:12.026Z,6.70
2022-08-30T06:17:39.802Z,9.30
2022-08-30T06:20:07.314Z,6.40
2022-08-30T06:22:34.440Z,6.00
2022-08-30T06:25:01.276Z,6.30
2022-08-30T06:27:28.143Z,6.60
2022-08-30T06:29:54.918Z,6.10
2022-08-30T06:32:21.768Z,6.00
2022-08-30T06:34:48.559Z,5.80
2022-08-30T06:37:29.311Z,6.30
2022-08-30T06:39:57.718Z,5.60
2022-08-30T06:42:30.513Z,5.60
2022-08-30T06:44:58.498Z,5.10
2022-08-30T06:47:25.259Z,4.90
2022-08-30T06:49:51.992Z,5.30
2022-08-30T06:52:19.227Z,4.80
2022-08-30T06:54:46.062Z,4.70
2022-08-30T06:57:13.041Z,5.10
2022-08-30T06:59:40.118Z,4.50
2022-08-30T07:02:07.012Z,4.80
2022-08-30T07:04:33.806Z,4.20
2022-08-30T07:07:00.663Z,3.90
2022-08-30T07:09:27.443Z,4.90
2022-08-30T07:11:54.249Z,4.80
2022-08-30T07:14:21.379Z,4.40
2022-08-30T07:16:51.118Z,4.50
2022-08-30T07:19:20.760Z,4.20
2022-08-30T07:21:49.291Z,4.60
2022-08-30T07:24:16.555Z,4.40
2022-08-30T07:26:47.264Z,3.60
2022-08-30T07:29:14.129Z,4.20
2022-08-30T07:31:40.943Z,3.40
2022-08-30T07:34:07.795Z,3.90
2022-08-30T07:36:35.348Z,3.90
2022-08-30T07:39:09.751Z,4.20
2022-08-30T07:41:38.756Z,4.10
2022-08-30T07:44:07.391Z,3.60
2022-08-30T07:46:34.568Z,3.70
2022-08-30T07:49:01.880Z,3.30
2022-08-30T07:51:31.000Z,3.80
2022-08-30T07:53:57.716Z,4.50
2022-08-30T07:56:24.635Z,4.40
2022-08-30T07:58:51.437Z,3.90
2022-08-30T08:01:18.383Z,3.90
2022-08-30T08:03:45.475Z,3.60
2022-08-30T08:06:13.446Z,4.00
2022-08-30T08:08:40.332Z,3.90
2022-08-30T08:11:16.256Z,4.00
2022-08-30T08:13:53.778Z,3.90
2022-08-30T08:16:22.502Z,3.80
2022-08-30T08:18:49.283Z,3.30
2022-08-30T08:21:16.100Z,3.90
2022-08-30T08:23:42.835Z,3.70
2022-08-30T08:26:09.634Z,4.30
2022-08-30T08:28:36.391Z,3.60
2022-08-30T08:31:03.528Z,3.70
2022-08-30T08:33:30.522Z,3.90
2022-08-30T08:35:57.255Z,4.00
2022-08-30T08:38:24.129Z,3.80
2022-08-30T08:41:10.484Z,3.50
2022-08-30T08:43:38.686Z,3.60
2022-08-30T08:46:10.905Z,4.00
2022-08-30T08:49:04.982Z,4.10
2022-08-30T08:51:52.246Z,3.80
2022-08-30T08:54:24.914Z,4.00
2022-08-30T08:56:51.712Z,3.70
2022-08-30T08:59:18.476Z,4.00
2022-08-30T09:01:45.290Z,4.30
2022-08-30T09:04:14.937Z,3.40
2022-08-30T09:06:58.951Z,3.40
2022-08-30T09:09:27.816Z,3.70
2022-08-30T09:11:54.579Z,4.80
2022-08-30T09:14:30.485Z,3.60
2022-08-30T09:17:05.300Z,3.30
2022-08-30T09:19:35.089Z,3.90
2022-08-30T09:22:05.018Z,3.60
2022-08-30T09:24:40.177Z,3.90
2022-08-30T09:27:17.051Z,4.00
2022-08-30T09:29:54.691Z,3.40
2022-08-30T09:32:37.253Z,3.40
2022-08-30T09:35:05.694Z,3.30
2022-08-30T09:37:35.812Z,3.70
2022-08-30T09:40:07.707Z,3.60
2022-08-30T09:42:34.485Z,3.50
2022-08-30T09:45:10.607Z,3.30
2022-08-30T09:47:42.428Z,3.40
2022-08-30T09:50:21.114Z,3.50
2022-08-30T09:53:10.599Z,3.10
2022-08-30T09:55:54.182Z,3.20
2022-08-30T09:58:30.067Z,3.20
2022-08-30T10:01:12.317Z,3.60
2022-08-30T10:03:44.101Z,3.00
2022-08-30T10:06:25.437Z,3.20
2022-08-30T10:09:03.819Z,3.00
2022-08-30T10:11:39.730Z,3.30
2022-08-30T10:14:12.465Z,3.30
2022-08-30T10:16:55.304Z,5.40
2022-08-30T10:19:47.521Z,3.60
2022-08-30T10:22:18.140Z,3.30
2022-08-30T10:24:48.159Z,2.50
2022-08-30T10:27:20.867Z,2.90
2022-08-30T10:29:51.402Z,3.20
2022-08-30T10:32:28.682Z,2.60
2022-08-30T10:38:06.430Z,2.50
2022-08-30T10:40:53.843Z,3.50
2022-08-30T10:43:32.035Z,3.10
2022-08-30T10:46:00.805Z,3.00
2022-08-30T10:48:31.324Z,2.90
2022-08-30T10:50:59.221Z,3.30
2022-08-30T10:53:34.134Z,3.00
2022-08-30T10:56:13.080Z,2.70
2022-08-30T10:58:40.996Z,2.90
2022-08-30T11:01:28.526Z,2.60
2022-08-30T11:04:29.358Z,3.20
2022-08-30T11:07:01.815Z,2.50
2022-08-30T11:09:42.674Z,4.00
2022-08-30T11:12:35.014Z,3.60
2022-08-30T11:15:13.628Z,3.10
2022-08-30T11:18:15.027Z,3.50
2022-08-30T11:20:50.888Z,2.80
2022-08-30T11:23:27.602Z,2.90
2022-08-30T11:26:06.090Z,2.80
2022-08-30T11:28:36.778Z,2.80
2022-08-30T11:31:18.499Z,2.90
2022-08-30T11:33:51.951Z,2.60
2022-08-30T11:36:46.282Z,2.50
2022-08-30T11:39:44.372Z,3.10
2022-08-30T11:42:32.490Z,3.20
2022-08-30T11:45:25.445Z,3.10
2022-08-30T11:48:00.790Z,2.90
2022-08-30T11:50:53.593Z,2.50
2022-08-30T11:53:43.953Z,2.90
2022-08-30T11:56:21.414Z,2.50
2022-08-30T11:59:01.730Z,2.80
2022-08-30T12:01:50.971Z,5.70
2022-08-30T12:04:19.514Z,3.10
2022-08-30T12:07:04.122Z,2.40
2022-08-30T12:09:32.927Z,2.60
2022-08-30T12:12:09.631Z,2.80
2022-08-30T12:15:58.476Z,2.90
2022-08-30T12:18:52.026Z,2.70
2022-08-30T12:21:22.049Z,2.60
2022-08-30T12:23:53.164Z,2.50
2022-08-30T12:26:26.035Z,2.60
2022-08-30T12:29:07.478Z,3.80
2022-08-30T12:31:34.244Z,2.80
2022-08-30T12:34:01.608Z,2.90
2022-08-30T12:36:52.606Z,2.80
2022-08-30T12:39:24.031Z,2.60
2022-08-30T12:41:50.833Z,3.00
2022-08-30T12:44:25.986Z,3.10
2022-08-30T12:46:59.754Z,2.40
2022-08-30T12:49:30.020Z,2.70
2022-08-30T12:51:57.514Z,2.70
2022-08-30T12:54:28.425Z,2.70
2022-08-30T12:59:56.741Z,2.90
2022-08-30T13:02:27.903Z,2.50
2022-08-30T13:04:55.562Z,2.60
2022-08-30T13:07:33.696Z,3.00
2022-08-30T13:10:06.402Z,2.40
2022-08-30T13:12:36.058Z,2.50
2022-08-30T13:15:10.596Z,2.60
2022-08-30T13:17:37.350Z,2.40
2022-08-30T13:20:22.012Z,2.40
2022-08-30T13:23:03.112Z,2.90
2022-08-30T13:25:32.904Z,2.60
2022-08-30T13:28:00.617Z,3.60
2022-08-30T13:30:27.609Z,5.90
2022-08-30T13:32:54.354Z,3.20
2022-08-30T13:35:21.526Z,3.40
2022-08-30T13:37:50.260Z,3.40
2022-08-30T13:40:19.151Z,3.10
2022-08-30T13:42:45.975Z,2.80
2022-08-30T13:48:00.998Z,2.60
2022-08-30T13:50:28.002Z,2.70
2022-08-30T13:52:54.739Z,2.30
2022-08-30T13:55:21.502Z,2.80
2022-08-30T13:57:56.390Z,3.20
2022-08-30T14:00:25.041Z,2.70
2022-08-30T14:02:57.502Z,2.70
2022-08-30T14:06:05.302Z,2.90
2022-08-30T14:08:45.306Z,2.90
2022-08-30T14:11:13.287Z,2.30
2022-08-30T14:14:14.776Z,3.40
2022-08-30T14:18:55.349Z,2.70
2022-08-30T14:21:24.717Z,2.60
2022-08-30T14:23:56.084Z,2.50
2022-08-30T14:26:26.839Z,2.70
2022-08-30T14:28:59.333Z,3.60
2022-08-30T14:31:26.141Z,2.80
2022-08-30T14:33:53.089Z,2.50
2022-08-30T14:36:19.989Z,2.20
2022-08-30T14:38:48.458Z,2.90
2022-08-30T14:41:15.455Z,3.10
2022-08-30T14:43:42.257Z,2.90
2022-08-30T14:46:10.309Z,2.60
2022-08-30T14:48:37.626Z,3.10
2022-08-30T14:51:12.318Z,2.70
2022-08-30T14:53:39.147Z,2.40
2022-08-30T14:56:10.852Z,2.60
2022-08-30T14:58:37.757Z,2.20
2022-08-30T15:01:12.474Z,5.50
2022-08-30T15:03:40.007Z,4.70
2022-08-30T15:06:07.347Z,6.50
2022-08-30T15:08:34.985Z,4.00
2022-08-30T15:11:02.387Z,2.80
2022-08-30T15:13:29.139Z,2.40
2022-08-30T15:15:56.839Z,3.30
2022-08-30T15:18:24.575Z,3.60
2022-08-30T15:20:51.383Z,3.00
2022-08-30T15:23:18.226Z,2.60
2022-08-30T15:25:51.567Z,2.40
2022-08-30T15:28:19.316Z,1.90
2022-08-30T15:30:46.210Z,2.70
2022-08-30T15:33:12.930Z,2.60
2022-08-30T15:35:41.628Z,2.80
2022-08-30T15:38:08.564Z,3.20
2022-08-30T15:40:39.666Z,3.20
2022-08-30T15:43:06.591Z,3.10
2022-08-30T15:45:33.814Z,3.60
2022-08-30T15:48:00.800Z,3.30
2022-08-30T15:50:27.914Z,3.20
2022-08-30T15:52:54.975Z,3.30
2022-08-30T15:55:21.710Z,3.70
2022-08-30T15:57:48.509Z,3.20
2022-08-30T16:00:15.762Z,3.20
2022-08-30T16:02:43.038Z,2.70
2022-08-30T16:05:10.734Z,2.80
2022-08-30T16:07:40.529Z,2.50
2022-08-30T16:10:08.891Z,3.60
2022-08-30T16:12:35.635Z,3.20
2022-08-30T16:15:02.405Z,2.70
2022-08-30T16:17:29.217Z,2.70
2022-08-30T16:19:58.896Z,3.40
2022-08-30T16:22:26.592Z,3.50
2022-08-30T16:24:53.566Z,3.10
2022-08-30T16:27:21.167Z,2.90
2022-08-30T16:29:48.535Z,3.10
2022-08-30T16:32:17.440Z,3.40
2022-08-30T16:34:44.218Z,2.70
2022-08-30T16:37:11.006Z,3.10
2022-08-30T16:39:37.759Z,3.40
2022-08-30T16:42:06.898Z,3.50
2022-08-30T16:44:33.872Z,4.90
2022-08-30T16:47:01.720Z,3.90
2022-08-30T16:49:28.645Z,3.30
2022-08-30T16:51:56.112Z,3.20
2022-08-30T16:54:23.398Z,3.80
2022-08-30T16:56:50.297Z,3.20
2022-08-30T16:59:17.806Z,3.60
2022-08-30T17:01:45.744Z,4.50
2022-08-30T17:04:15.891Z,3.90
2022-08-30T17:06:46.137Z,3.70
2022-08-30T17:09:15.145Z,4.90
2022-08-30T17:11:42.201Z,3.70
2022-08-30T17:14:09.628Z,4.40
2022-08-30T17:16:37.171Z,4.20
2022-08-30T17:19:04.382Z,4.20
2022-08-30T17:21:32.251Z,4.30
2022-08-30T17:24:01.858Z,4.20
2022-08-30T17:26:33.388Z,4.90
2022-08-30T17:29:00.124Z,4.60
2022-08-30T17:31:29.285Z,5.20
2022-08-30T17:34:01.166Z,5.00
2022-08-30T17:36:31.142Z,7.00
2022-08-30T17:38:57.878Z,5.50
2022-08-30T17:41:24.612Z,4.90
2022-08-30T17:43:51.631Z,5.10
2022-08-30T17:46:19.592Z,5.40
2022-08-30T17:48:46.735Z,6.30
2022-08-30T17:51:13.543Z,5.10
2022-08-30T17:53:40.436Z,5.50
2022-08-30T17:56:08.636Z,6.40
2022-08-30T17:58:35.408Z,5.80
2022-08-30T18:01:11.768Z,6.00
2022-08-30T18:06:07.192Z,5.30
2022-08-30T18:08:34.456Z,5.20
2022-08-30T18:11:01.732Z,5.00
2022-08-30T18:13:28.530Z,5.50
2022-08-30T18:15:56.622Z,6.30
2022-08-30T18:18:23.764Z,4.60
2022-08-30T18:20:51.053Z,6.00
2022-08-30T18:23:18.019Z,5.50
2022-08-30T18:25:57.873Z,6.60
2022-08-30T18:28:24.788Z,7.10
2022-08-30T18:30:52.872Z,6.70
2022-08-30T18:33:20.381Z,6.50
2022-08-30T18:35:48.728Z,6.40
2022-08-30T18:38:15.584Z,5.80
2022-08-30T18:40:42.535Z,6.30
2022-08-30T18:43:10.657Z,6.10
2022-08-30T18:45:37.769Z,6.30
2022-08-30T18:48:05.575Z,6.00
2022-08-30T18:50:32.468Z,6.30
2022-08-30T18:52:59.711Z,6.00
2022-08-30T18:55:26.841Z,6.30
2022-08-30T18:57:54.125Z,8.90
2022-08-30T19:00:21.746Z,9.90
2022-08-30T19:02:48.783Z,8.70
2022-08-30T19:05:16.323Z,7.50
2022-08-30T19:07:43.968Z,9.10
2022-08-30T19:10:12.384Z,9.10
2022-08-30T19:12:39.950Z,9.00
2022-08-30T19:15:10.854Z,8.20
2022-08-30T19:17:43.135Z,8.30
2022-08-30T19:20:11.459Z,9.00
2022-08-30T19:22:56.550Z,9.60
2022-08-30T19:25:25.354Z,9.20
2022-08-30T19:27:52.336Z,9.00
2022-08-30T19:30:29.677Z,9.00
2022-08-30T19:32:57.066Z,8.40
2022-08-30T19:35:24.250Z,8.80
2022-08-30T19:37:51.248Z,9.00
2022-08-30T19:40:18.503Z,9.00
2022-08-30T19:42:45.917Z,7.90
2022-08-30T19:45:32.242Z,8.00
2022-08-30T19:48:00.831Z,8.00
2022-08-30T19:50:27.628Z,8.20
2022-08-30T19:52:55.324Z,8.00
2022-08-30T19:55:28.680Z,8.60
2022-08-30T19:57:57.321Z,8.70
2022-08-30T20:00:24.114Z,8.50
2022-08-30T20:02:51.393Z,8.90
2022-08-30T20:05:18.938Z,9.00
2022-08-30T20:07:45.909Z,9.00
2022-08-30T20:10:13.831Z,10.70
2022-08-30T20:12:45.462Z,9.50
2022-08-30T20:15:14.594Z,9.20
2022-08-30T20:18:02.714Z,9.00
2022-08-30T20:20:29.196Z,10.00
2022-08-30T20:22:55.958Z,9.30
2022-08-30T20:25:22.866Z,9.70
2022-08-30T20:27:49.730Z,9.80
2022-08-30T20:30:17.072Z,9.70
2022-08-30T20:32:46.683Z,9.70
2022-08-30T20:35:14.922Z,11.00
2022-08-30T20:37:43.216Z,10.00
2022-08-30T20:40:15.020Z,11.30
2022-08-30T20:42:45.481Z,10.20
2022-08-30T20:45:14.051Z,10.60
2022-08-30T20:47:41.582Z,10.30
2022-08-30T20:50:13.794Z,11.30
2022-08-30T20:52:40.873Z,10.70
2022-08-30T20:55:08.291Z,10.90
2022-08-30T20:57:35.025Z,9.10
2022-08-30T21:00:01.824Z,9.90
2022-08-30T21:02:28.681Z,10.40
2022-08-30T21:04:55.817Z,10.00
2022-08-30T21:07:22.634Z,9.80
2022-08-30T21:09:50.235Z,8.80
2022-08-30T21:12:16.958Z,9.80
2022-08-30T21:14:43.700Z,9.50
2022-08-30T21:17:10.439Z,9.50
2022-08-30T21:19:40.878Z,9.90
2022-08-30T21:22:10.499Z,10.80
2022-08-30T21:24:37.295Z,10.30
2022-08-30T21:27:04.143Z,9.60
2022-08-30T21:29:33.074Z,9.30
2022-08-30T21:31:59.811Z,8.40
2022-08-30T21:34:26.596Z,7.50
2022-08-30T21:36:53.512Z,8.30
2022-08-30T21:39:20.526Z,7.40
2022-08-30T21:41:48.395Z,7.70
2022-08-30T21:44:17.543Z,8.40
2022-08-30T21:46:44.514Z,8.20
2022-08-30T21:49:12.288Z,7.40
2022-08-30T21:51:40.981Z,8.30
2022-08-30T21:54:08.769Z,7.00
2022-08-30T21:56:36.347Z,7.00
2022-08-30T21:59:04.188Z,7.10
2022-08-30T22:01:31.539Z,6.20
2022-08-30T22:04:00.188Z,6.50
2022-08-30T22:06:30.767Z,6.60
2022-08-30T22:08:58.466Z,6.50
2022-08-30T22:11:25.843Z,6.60
2022-08-30T22:13:52.970Z,6.80
2022-08-30T22:16:19.932Z,6.60
2022-08-30T22:18:46.694Z,6.50
2022-08-30T22:21:16.402Z,7.10
2022-08-30T22:23:43.700Z,6.90
2022-08-30T22:26:10.574Z,7.00
2022-08-30T22:28:37.415Z,7.60
2022-08-30T22:31:06.428Z,7.10
2022-08-30T22:33:33.205Z,6.70
2022-08-30T22:36:14.644Z,7.20
2022-08-30T22:38:41.383Z,6.50
2022-08-30T22:41:09.723Z,6.20
2022-08-30T22:43:36.639Z,7.20
2022-08-30T22:46:03.562Z,7.00
2022-08-30T22:48:30.338Z,6.40
2022-08-30T22:50:57.038Z,6.70
2022-08-30T22:53:23.799Z,6.70
2022-08-30T22:55:50.526Z,5.80
2022-08-30T22:58:19.016Z,7.10
2022-08-30T23:00:54.458Z,6.50
2022-08-30T23:03:22.007Z,6.60
2022-08-30T23:05:48.816Z,6.20
2022-08-30T23:08:15.515Z,6.20
2022-08-30T23:10:44.304Z,6.00
2022-08-30T23:13:11.240Z,6.50
2022-08-30T23:15:37.974Z,6.30
2022-08-30T23:18:04.704Z,6.30
2022-08-30T23:20:31.451Z,5.90
2022-08-30T23:22:58.139Z,5.70
2022-08-30T23:25:47.531Z,6.00
2022-08-30T23:28:37.886Z,6.30
2022-08-30T23:31:34.043Z,5.80
2022-08-30T23:34:19.447Z,5.90
2022-08-30T23:37:04.738Z,6.10
2022-08-30T23:39:50.054Z,6.60
2022-08-30T23:42:35.490Z,5.90
2022-08-30T23:45:20.814Z,6.10
2022-08-30T23:48:06.239Z,6.10
2022-08-30T23:50:51.263Z,5.60
2022-08-30T23:53:36.649Z,6.10
2022-08-30T23:56:22.023Z,6.10
2022-08-30T23:59:07.432Z,6.70
